createdAt,value
2018-02-07T10:34:44.498Z,23.92
2018-02-07T10:36:46.303Z,20.67
2018-02-07T10:46:46.562Z,18.00
2018-02-07T10:48:47.571Z,16.90
2018-02-07T10:50:48.596Z,17.13
2018-02-07T10:52:49.599Z,18.00
2018-02-07T10:54:50.563Z,17.93
2018-02-07T10:56:51.519Z,18.00
2018-02-07T10:58:52.612Z,18.40
2018-02-07T11:00:53.611Z,18.25
2018-02-07T11:02:54.674Z,17.20
2018-02-07T11:05:05.284Z,18.20
2018-02-07T11:07:07.064Z,17.00
2018-02-07T11:09:08.089Z,16.80
2018-02-07T11:13:36.857Z,19.67
2018-02-07T11:15:37.824Z,18.53
2018-02-07T11:17:39.102Z,17.60
2018-02-07T11:19:50.737Z,18.48
2018-02-07T11:22:05.189Z,17.60
2018-02-07T11:24:06.143Z,18.53
2018-02-07T11:26:07.130Z,17.20
2018-02-07T11:30:48.591Z,18.83
2018-02-07T11:33:05.128Z,18.73
2018-02-07T11:37:34.093Z,19.30
2018-02-07T11:42:13.229Z,17.83
2018-02-07T11:46:50.835Z,19.65
2018-02-07T11:48:52.015Z,19.93
2018-02-07T11:50:52.983Z,19.50
2018-02-07T11:55:46.578Z,18.63
2018-02-07T11:57:48.262Z,18.70
2018-02-07T11:59:49.695Z,18.70
2018-02-07T12:02:04.612Z,17.73
2018-02-07T12:09:14.822Z,20.10
2018-02-07T12:13:43.624Z,18.70
2018-02-07T12:15:44.603Z,19.53
2018-02-07T12:20:13.812Z,18.80
2018-02-07T12:22:15.404Z,18.50
2018-02-07T12:24:17.924Z,18.93
2018-02-07T12:26:19.120Z,19.57
2018-02-07T12:28:20.104Z,20.40
2018-02-07T12:30:21.177Z,26.10
2018-02-07T12:32:40.076Z,19.87
2018-02-07T12:34:42.182Z,19.40
2018-02-07T12:37:04.294Z,20.63
2018-02-07T12:41:33.581Z,18.80
2018-02-07T12:43:34.574Z,19.30
2018-02-07T12:45:35.533Z,18.80
2018-02-07T12:47:36.584Z,19.67
2018-02-07T12:49:46.636Z,20.77
2018-02-07T12:51:48.010Z,20.00
2018-02-07T12:53:49.832Z,20.70
2018-02-07T12:58:19.144Z,20.90
2018-02-07T13:00:20.127Z,19.63
2018-02-07T13:04:49.997Z,20.97
2018-02-07T13:06:51.015Z,19.90
2018-02-07T13:08:52.149Z,19.80
2018-02-07T13:13:21.945Z,20.03
2018-02-07T13:15:48.571Z,20.70
2018-02-07T13:17:49.554Z,20.67
2018-02-07T13:22:18.879Z,20.63
2018-02-07T13:24:20.628Z,21.63
2018-02-07T13:28:59.013Z,23.00
2018-02-07T13:31:00.002Z,25.00
2018-02-07T13:35:28.956Z,23.73
2018-02-07T13:37:29.991Z,22.20
2018-02-07T13:41:58.870Z,23.20
2018-02-07T13:44:00.420Z,22.83
2018-02-07T13:46:01.839Z,21.60
2018-02-07T13:48:02.860Z,22.80
2018-02-07T13:52:31.914Z,23.00
2018-02-07T13:54:32.884Z,22.90
2018-02-07T13:56:34.357Z,21.50
2018-02-07T13:58:35.386Z,21.60
2018-02-07T14:00:42.368Z,21.87
2018-02-07T14:02:43.387Z,20.73
2018-02-07T14:04:44.528Z,21.30
2018-02-07T14:06:45.523Z,21.67
2018-02-07T14:08:47.288Z,21.90
2018-02-07T14:10:49.032Z,22.93
2018-02-07T14:12:50.020Z,22.37
2018-02-07T14:14:51.265Z,23.30
2018-02-07T14:16:52.244Z,24.73
2018-02-07T14:18:53.234Z,22.80
2018-02-07T14:20:54.967Z,23.70
2018-02-07T14:22:55.972Z,22.60
2018-02-07T14:24:57.001Z,22.67
2018-02-07T14:26:58.719Z,23.87
2018-02-07T14:28:59.758Z,24.37
2018-02-07T14:34:16.188Z,22.67
2018-02-07T14:36:31.290Z,23.83
2018-02-07T14:38:32.239Z,23.15
2018-02-07T14:40:33.200Z,23.53
2018-02-07T14:42:34.211Z,23.33
2018-02-07T14:44:35.235Z,22.80
2018-02-07T14:47:00.785Z,22.20
2018-02-07T14:51:30.997Z,22.80
2018-02-07T14:53:31.952Z,21.77
2018-02-07T14:58:01.603Z,20.73
2018-02-07T15:00:02.622Z,22.03
2018-02-07T15:04:46.024Z,22.80
2018-02-07T15:06:46.985Z,22.63
2018-02-07T15:08:48.005Z,24.05
2018-02-07T15:10:49.692Z,24.27
2018-02-07T15:12:50.643Z,24.57
2018-02-07T15:15:01.260Z,24.10
2018-02-07T15:17:02.273Z,21.63
2018-02-07T15:19:03.226Z,25.40
2018-02-07T15:21:04.625Z,23.90
2018-02-07T15:23:05.600Z,25.63
2018-02-07T15:25:30.977Z,24.00
2018-02-07T15:34:06.263Z,27.20
2018-02-07T15:36:07.911Z,24.23
2018-02-07T15:38:31.175Z,25.27
2018-02-07T15:40:32.172Z,26.00
2018-02-07T15:42:33.314Z,22.23
2018-02-07T15:44:34.611Z,24.75
2018-02-07T15:46:35.651Z,23.40
2018-02-07T15:48:37.352Z,22.77
2018-02-07T15:52:56.808Z,24.70
2018-02-07T15:54:57.776Z,24.23
2018-02-07T15:56:58.792Z,25.27
2018-02-07T15:58:59.744Z,24.40
2018-02-07T16:03:09.587Z,25.23
2018-02-07T16:05:10.871Z,24.20
2018-02-07T16:07:12.755Z,23.90
2018-02-07T16:09:13.856Z,25.45
2018-02-07T16:11:14.972Z,23.70
2018-02-07T16:13:31.351Z,22.60
2018-02-07T16:15:32.335Z,26.35
2018-02-07T16:17:33.279Z,22.93
2018-02-07T16:22:11.801Z,25.00
2018-02-07T16:24:12.868Z,23.90
2018-02-07T16:26:13.943Z,26.47
2018-02-07T16:28:14.900Z,24.17
2018-02-07T16:30:16.096Z,23.57
2018-02-07T16:32:17.208Z,22.27
2018-02-07T16:36:45.787Z,20.77
2018-02-07T16:39:12.826Z,20.87
2018-02-07T16:43:43.060Z,20.97
2018-02-07T16:45:44.276Z,22.43
2018-02-07T16:50:12.754Z,20.83
2018-02-07T16:52:13.745Z,22.40
2018-02-07T16:54:14.826Z,20.30
2018-02-07T16:56:42.558Z,22.27
2018-02-07T16:58:52.488Z,19.77
2018-02-07T17:00:53.489Z,19.73
2018-02-07T17:02:54.471Z,20.43
2018-02-07T17:04:55.645Z,24.98
2018-02-07T17:07:15.039Z,22.47
2018-02-07T17:09:16.019Z,22.57
2018-02-07T17:11:16.993Z,24.08
2018-02-07T17:13:18.687Z,21.90
2018-02-07T17:15:19.641Z,20.13
2018-02-07T17:17:27.447Z,24.90
2018-02-07T17:19:38.539Z,22.13
2018-02-07T17:24:08.203Z,25.33
2018-02-07T17:26:09.198Z,22.07
2018-02-07T17:28:10.157Z,20.77
2018-02-07T17:30:11.150Z,19.53
2018-02-07T17:32:12.614Z,19.53
2018-02-07T17:34:13.808Z,23.20
2018-02-07T17:36:14.848Z,23.07
2018-02-07T17:38:15.825Z,22.63
2018-02-07T17:40:17.047Z,24.75
2018-02-07T17:42:18.028Z,24.00
2018-02-07T17:44:19.058Z,22.20
2018-02-07T17:46:20.049Z,25.92
2018-02-07T17:48:21.180Z,23.83
2018-02-07T17:50:22.187Z,21.93
2018-02-07T17:52:23.770Z,25.17
2018-02-07T17:54:26.393Z,22.80
2018-02-07T17:56:27.497Z,23.37
2018-02-07T17:58:28.454Z,24.60
2018-02-07T18:00:29.455Z,23.80
2018-02-07T18:02:31.178Z,25.30
2018-02-07T18:04:32.500Z,23.93
2018-02-07T18:06:34.240Z,22.70
2018-02-07T18:08:36.005Z,22.50
2018-02-07T18:10:38.321Z,21.40
2018-02-07T18:12:39.311Z,27.92
2018-02-07T18:14:40.297Z,25.97
2018-02-07T18:16:41.582Z,25.37
2018-02-07T18:18:43.322Z,32.00
2018-02-07T18:20:44.301Z,25.13
2018-02-07T18:22:45.317Z,24.40
2018-02-07T18:24:46.280Z,28.60
2018-02-07T18:26:47.252Z,25.10
2018-02-07T18:28:48.249Z,25.57
2018-02-07T18:30:49.889Z,23.37
2018-02-07T18:32:50.939Z,23.90
2018-02-07T18:34:51.911Z,25.43
2018-02-07T18:36:52.892Z,22.87
2018-02-07T18:38:54.124Z,23.87
2018-02-07T18:40:55.153Z,22.33
2018-02-07T18:42:56.124Z,22.70
2018-02-07T18:44:57.762Z,23.10
2018-02-07T18:46:59.251Z,24.70
2018-02-07T18:49:00.292Z,31.23
2018-02-07T18:51:01.261Z,28.20
2018-02-07T18:53:02.288Z,29.27
2018-02-07T18:55:03.267Z,28.90
2018-02-07T18:57:10.252Z,31.67
2018-02-07T18:59:11.271Z,29.60
2018-02-07T19:01:12.294Z,29.10
2018-02-07T19:03:13.347Z,25.77
2018-02-07T19:05:14.301Z,23.87
2018-02-07T19:07:16.707Z,23.00
2018-02-07T19:09:17.720Z,24.07
2018-02-07T19:11:18.755Z,28.25
2018-02-07T19:13:19.720Z,28.40
2018-02-07T19:15:20.728Z,26.40
2018-02-07T19:17:41.578Z,28.48
2018-02-07T19:19:42.565Z,25.93
2018-02-07T19:24:11.264Z,32.45
2018-02-07T19:26:12.211Z,27.50
2018-02-07T19:28:13.208Z,24.10
2018-02-07T19:30:40.561Z,30.30
2018-02-07T19:32:41.602Z,24.27
2018-02-07T19:34:42.617Z,26.27
2018-02-07T19:36:43.647Z,24.27
2018-02-07T19:41:22.571Z,26.55
2018-02-07T19:45:51.549Z,29.00
2018-02-07T19:47:52.579Z,34.08
2018-02-07T19:49:53.653Z,30.53
2018-02-07T19:54:32.572Z,32.53
2018-02-07T19:56:33.643Z,32.13
2018-02-07T19:58:34.608Z,28.23
2018-02-07T20:00:35.793Z,27.50
2018-02-07T20:02:36.769Z,30.20
2018-02-07T20:04:37.760Z,30.70
2018-02-07T20:06:52.754Z,31.20
2018-02-07T20:08:53.797Z,35.70
2018-02-07T20:10:54.808Z,40.70
2018-02-07T20:12:55.779Z,35.60
2018-02-07T20:17:33.822Z,35.03
2018-02-07T20:22:12.033Z,25.83
2018-02-07T20:24:14.633Z,26.80
2018-02-07T20:26:16.871Z,25.37
2018-02-07T20:28:18.917Z,26.60
2018-02-07T20:30:20.309Z,26.23
2018-02-07T20:34:58.832Z,32.60
2018-02-07T20:37:04.463Z,31.43
2018-02-07T20:39:05.691Z,30.37
2018-02-07T20:43:50.227Z,31.10
2018-02-07T20:45:51.282Z,30.30
2018-02-07T20:47:52.351Z,23.93
2018-02-07T20:50:01.280Z,26.12
2018-02-07T20:52:03.271Z,25.80
2018-02-07T20:56:53.381Z,26.48
2018-02-07T20:58:55.687Z,28.08
2018-02-07T21:00:56.775Z,28.33
2018-02-07T21:05:34.599Z,29.25
2018-02-07T21:07:44.081Z,27.70
2018-02-07T21:09:45.085Z,27.13
2018-02-07T21:11:46.183Z,34.65
2018-02-07T21:13:47.209Z,32.38
2018-02-07T21:15:48.219Z,28.05
2018-02-07T21:17:49.291Z,32.70
2018-02-07T21:19:51.200Z,30.95
2018-02-07T21:21:52.368Z,27.25
2018-02-07T21:23:53.481Z,28.48
2018-02-07T21:25:54.459Z,27.48
2018-02-07T21:27:55.549Z,22.27
2018-02-07T21:29:56.524Z,24.75
2018-02-07T21:31:57.567Z,22.13
2018-02-07T21:33:58.576Z,22.70
2018-02-07T21:38:37.524Z,25.85
2018-02-07T21:40:38.823Z,26.07
2018-02-07T21:45:17.768Z,23.60
2018-02-07T21:47:18.863Z,30.00
2018-02-07T21:49:19.977Z,26.95
2018-02-07T21:51:46.581Z,26.85
2018-02-07T21:53:47.665Z,25.48
2018-02-07T21:55:49.402Z,26.33
2018-02-07T21:57:50.486Z,27.00
2018-02-07T22:00:17.128Z,25.52
2018-02-07T22:04:53.415Z,31.93
2018-02-07T22:06:54.471Z,29.23
2018-02-07T22:08:55.512Z,26.95
2018-02-07T22:11:02.661Z,31.17
2018-02-07T22:13:03.732Z,28.48
2018-02-07T22:15:04.709Z,28.62
2018-02-07T22:17:05.684Z,32.55
2018-02-07T22:19:06.841Z,28.57
2018-02-07T22:21:07.961Z,28.60
2018-02-07T22:23:08.988Z,26.62
2018-02-07T22:25:10.001Z,26.67
2018-02-07T22:27:17.088Z,27.58
2018-02-07T22:31:52.014Z,27.75
2018-02-07T22:33:53.076Z,28.33
2018-02-07T22:35:54.039Z,27.70
2018-02-07T22:37:55.024Z,31.65
2018-02-07T22:40:00.083Z,29.80
2018-02-07T22:42:01.208Z,25.00
2018-02-07T22:44:02.214Z,30.67
2018-02-07T22:46:03.200Z,27.90
2018-02-07T22:48:04.207Z,24.90
2018-02-07T22:50:05.135Z,32.45
2018-02-07T22:52:06.116Z,26.17
2018-02-07T22:54:07.075Z,25.93
2018-02-07T22:56:08.032Z,23.50
2018-02-07T22:58:09.053Z,23.90
2018-02-07T23:00:10.094Z,25.12
2018-02-07T23:02:21.621Z,24.48
2018-02-07T23:04:22.645Z,22.00
2018-02-07T23:06:23.667Z,24.35
2018-02-07T23:08:24.657Z,23.92
2018-02-07T23:10:25.630Z,23.37
2018-02-07T23:15:04.702Z,23.20
2018-02-07T23:17:30.241Z,24.42
2018-02-07T23:24:50.301Z,28.38
2018-02-07T23:26:51.361Z,27.20
2018-02-07T23:34:10.092Z,21.85
2018-02-07T23:36:11.178Z,27.70
2018-02-07T23:38:12.331Z,24.52
2018-02-07T23:40:13.508Z,24.15
2018-02-07T23:42:23.665Z,22.52
2018-02-07T23:44:25.100Z,23.08
2018-02-07T23:46:26.184Z,23.25
2018-02-07T23:56:03.597Z,21.17
